Time;durP1;ratioP1;P1;durP2;ratioP2;P2;SDS_P1;SDS_P2;PMS_P1;PMS_P2;Temp;Humidity;BMP_temperature;BMP_pressure;BME280_temperature;BME280_humidity;BME280_pressure;Samples;Min_cycle;Max_cycle;Signal;HPM_P1;HPM_P2
2021/09/13 00:01:18;;;;;;;1.08;1.00;;;;;;;16.12;100.00;100753.50;6263826;28;20191;-75
2021/09/13 00:04:45;;;;;;;0.93;0.93;;;;;;;16.14;100.00;100762.31;6263288;28;20221;-75
2021/09/13 00:07:50;;;;;;;0.90;0.90;;;;;;;16.02;100.00;100775.34;6263952;28;20195;-75
2021/09/13 00:10:54;;;;;;;1.55;0.90;;;;;;;15.87;100.00;100772.38;6262515;28;20248;-75
2021/09/13 00:13:59;;;;;;;0.90;0.90;;;;;;;15.91;100.00;100789.22;6262345;28;20477;-75
2021/09/13 00:17:05;;;;;;;0.75;0.60;;;;;;;15.89;100.00;100792.25;6262726;28;20185;-75
2021/09/13 00:20:13;;;;;;;0.70;0.70;;;;;;;15.70;100.00;100806.50;6262276;28;20217;-74
2021/09/13 00:23:23;;;;;;;0.60;0.60;;;;;;;15.61;100.00;100814.38;6263239;28;20189;-75
2021/09/13 00:26:27;;;;;;;0.73;0.60;;;;;;;15.46;100.00;100808.59;6262169;28;20492;-75
2021/09/13 00:29:32;;;;;;;0.60;0.60;;;;;;;15.48;100.00;100825.69;6262111;28;20540;-74
2021/09/13 00:32:38;;;;;;;0.70;0.70;;;;;;;15.35;100.00;100828.72;6263519;28;20185;-75
2021/09/13 00:35:44;;;;;;;0.90;0.90;;;;;;;15.29;100.00;100829.72;6262429;28;20197;-75
2021/09/13 00:38:48;;;;;;;0.70;0.70;;;;;;;15.13;99.41;100836.00;6263239;28;20219;-75
2021/09/13 00:41:52;;;;;;;0.60;0.60;;;;;;;15.20;97.44;100842.19;6261919;28;20238;-75
2021/09/13 00:44:57;;;;;;;0.80;0.80;;;;;;;15.21;97.25;100839.19;6244768;28;20495;-75
2021/09/13 00:48:03;;;;;;;0.68;0.68;;;;;;;15.22;96.77;100837.28;6261847;28;20247;-75
2021/09/13 00:51:07;;;;;;;0.80;0.80;;;;;;;15.13;96.17;100841.50;6244563;28;20394;-75
2021/09/13 00:54:12;;;;;;;0.60;0.60;;;;;;;15.08;96.38;100850.50;6261723;28;20434;-75
2021/09/13 00:57:17;;;;;;;0.80;0.80;;;;;;;15.11;96.09;100862.91;6244618;28;20236;-75
2021/09/13 01:00:22;;;;;;;0.93;0.88;;;;;;;15.11;94.53;100865.66;6263236;28;20247;-75
2021/09/13 01:03:29;;;;;;;0.80;0.80;;;;;;;15.02;94.01;100868.78;6275718;23;20604;-71
2021/09/13 01:06:34;;;;;;;2.38;1.05;;;;;;;15.00;95.00;100876.44;6263510;28;20185;-71
2021/09/13 01:09:38;;;;;;;1.00;1.00;;;;;;;15.05;94.96;100882.03;6270521;28;20231;-71
2021/09/13 01:12:42;;;;;;;1.25;1.00;;;;;;;14.99;95.03;100879.44;6288560;28;20223;-72
2021/09/13 01:15:47;;;;;;;1.08;1.08;;;;;;;14.93;94.17;100886.75;6269245;28;20231;-72
2021/09/13 01:18:52;;;;;;;2.60;1.23;;;;;;;14.93;94.50;100886.75;6268496;28;20269;-72
2021/09/13 01:22:00;;;;;;;1.02;0.93;;;;;;;14.92;95.39;100896.06;6268813;28;20200;-72
2021/09/13 01:25:14;;;;;;;3.13;1.10;;;;;;;14.94;95.14;100893.09;6269959;28;20231;-73
2021/09/13 01:28:32;;;;;;;1.05;1.05;;;;;;;15.05;93.52;100890.28;6270883;28;20199;-72
2021/09/13 01:31:37;;;;;;;3.03;1.20;;;;;;;14.99;93.48;100895.94;6267853;28;20200;-72
2021/09/13 01:34:52;;;;;;;1.73;1.10;;;;;;;14.98;93.38;100908.84;6269546;28;20492;-72
2021/09/13 01:38:00;;;;;;;1.33;0.90;;;;;;;14.90;94.82;100906.47;6268505;28;20231;-72
2021/09/13 01:41:06;;;;;;;1.20;1.10;;;;;;;14.76;92.58;100907.84;6268193;28;20265;-72
2021/09/13 01:44:24;;;;;;;1.02;1.02;;;;;;;14.82;92.42;100912.34;6285656;28;20381;-72
2021/09/13 01:47:33;;;;;;;1.77;1.50;;;;;;;14.77;90.09;100920.47;6268726;28;20189;-72
2021/09/13 01:50:39;;;;;;;3.92;1.30;;;;;;;14.70;90.27;100924.44;6268977;28;20210;-72
2021/09/13 01:53:44;;;;;;;1.50;1.30;;;;;;;14.55;89.19;100933.19;6286474;28;20238;-73
2021/09/13 01:56:50;;;;;;;6.10;1.45;;;;;;;14.52;87.74;100933.66;6285927;28;20252;-72
2021/09/13 02:00:11;;;;;;;7.03;1.40;;;;;;;14.56;88.26;100929.34;6270115;28;20224;-72
2021/09/13 02:03:21;;;;;;;3.63;1.20;;;;;;;14.60;89.06;100926.97;6272156;28;20489;-72
2021/09/13 02:06:28;;;;;;;1.98;1.30;;;;;;;14.57;89.58;100942.00;6272183;28;20263;-72
2021/09/13 02:09:33;;;;;;;2.55;1.40;;;;;;;14.42;87.33;100949.91;6291277;28;20213;-72
2021/09/13 02:12:40;;;;;;;1.63;1.50;;;;;;;14.38;88.09;100954.16;6273256;28;20231;-72
2021/09/13 02:15:46;;;;;;;2.58;1.50;;;;;;;14.32;85.89;100960.63;6273213;28;20200;-72
2021/09/13 02:18:54;;;;;;;4.07;1.40;;;;;;;14.22;86.14;100979.56;6272883;28;20263;-72
2021/09/13 02:21:59;;;;;;;4.38;1.40;;;;;;;14.17;86.70;100968.47;6272645;28;20267;-72
2021/09/13 02:25:10;;;;;;;1.40;1.40;;;;;;;14.21;85.58;100975.16;6272652;28;20200;-72
2021/09/13 02:28:17;;;;;;;1.85;1.17;;;;;;;14.18;84.26;100975.63;6272786;28;20206;-72
2021/09/13 02:31:22;;;;;;;1.77;1.60;;;;;;;14.23;84.51;100989.47;6271760;28;20495;-72
2021/09/13 02:35:05;;;;;;;1.60;1.50;;;;;;;14.13;84.97;100989.22;6276639;28;20274;-72
2021/09/13 02:38:09;;;;;;;4.03;1.52;;;;;;;14.18;83.82;100992.09;6271558;28;20199;-72
2021/09/13 02:41:13;;;;;;;6.28;1.40;;;;;;;14.23;82.19;100983.97;6271807;28;20255;-72
2021/09/13 02:44:19;;;;;;;2.28;1.30;;;;;;;14.15;82.87;100998.06;6272689;28;20398;-72
2021/09/13 02:47:24;;;;;;;1.20;1.20;;;;;;;14.16;83.69;100999.72;6288902;28;20530;-72
2021/09/13 02:50:33;;;;;;;1.58;1.27;;;;;;;14.19;83.82;101010.22;6273172;28;20255;-72
2021/09/13 02:53:42;;;;;;;2.63;1.55;;;;;;;14.16;84.31;101028.00;6272520;28;20191;-71
2021/09/13 02:56:49;;;;;;;2.13;1.65;;;;;;;13.75;84.30;101034.34;6289847;28;20306;-72
2021/09/13 03:00:16;;;;;;;1.55;1.50;;;;;;;13.77;83.93;101028.59;6288777;28;20227;-72
2021/09/13 03:03:48;;;;;;;1.75;1.40;;;;;;;13.84;83.60;101034.00;6274408;28;20232;-72
2021/09/13 03:07:12;;;;;;;1.50;1.45;;;;;;;13.78;81.96;101039.34;6289734;28;20196;-72
2021/09/13 03:10:36;;;;;;;4.47;1.30;;;;;;;13.61;82.95;101053.94;6288034;28;20467;-71
2021/09/13 03:13:57;;;;;;;1.67;1.30;;;;;;;13.58;82.13;101057.16;6273926;28;20227;-71
2021/09/13 03:17:21;;;;;;;1.55;1.55;;;;;;;13.41;82.54;101062.41;6273242;28;20180;-71
2021/09/13 03:20:25;;;;;;;3.67;1.40;;;;;;;13.29;82.18;101052.47;6270846;28;20519;-71
2021/09/13 03:23:30;;;;;;;1.58;1.30;;;;;;;13.30;82.95;101060.44;6271202;28;20231;-72
2021/09/13 03:26:35;;;;;;;1.30;1.23;;;;;;;13.36;82.25;101047.72;6271496;28;20200;-72
2021/09/13 03:30:00;;;;;;;1.20;1.20;;;;;;;13.35;81.24;101051.53;6273446;28;20207;-72
2021/09/13 03:33:07;;;;;;;1.92;1.10;;;;;;;13.16;82.60;101058.94;6271131;28;20211;-72
2021/09/13 03:36:12;;;;;;;1.17;1.17;;;;;;;13.22;81.39;101069.00;6288880;28;20251;-72
2021/09/13 03:39:25;;;;;;;1.13;1.13;;;;;;;13.22;80.79;101060.78;6271322;28;20190;-71
2021/09/13 03:42:33;;;;;;;1.30;1.30;;;;;;;12.99;78.63;101060.59;6289006;28;20261;-72
2021/09/13 03:45:37;;;;;;;1.27;1.27;;;;;;;13.02;78.98;101058.19;6270730;28;20495;-72
2021/09/13 03:49:51;;;;;;;2.28;1.45;;;;;;;12.98;79.64;101075.31;6130898;28;20306;-72
2021/09/13 03:53:13;;;;;;;1.02;1.02;;;;;;;12.84;78.08;101065.59;6178149;28;20371;-72
2021/09/13 03:56:36;;;;;;;4.05;1.58;;;;;;;12.89;78.63;101071.22;6272476;28;20173;-72
2021/09/13 03:59:58;;;;;;;2.15;1.40;;;;;;;12.82;78.15;101070.44;6272308;28;20406;-72
2021/09/13 04:03:12;;;;;;;10.88;1.40;;;;;;;12.66;77.69;101076.50;6287811;28;20259;-72
2021/09/13 04:06:24;;;;;;;1.27;1.20;;;;;;;12.71;79.34;101082.16;6269774;28;20416;-72
2021/09/13 04:10:00;;;;;;;1.95;1.40;;;;;;;12.71;78.11;101084.88;6288453;28;20263;-71
2021/09/13 04:13:22;;;;;;;1.42;1.30;;;;;;;12.63;77.48;101101.59;6287911;28;20239;-71
2021/09/13 04:16:48;;;;;;;1.50;1.38;;;;;;;12.35;77.58;101116.53;6269832;28;20208;-72
2021/09/13 04:20:14;;;;;;;1.60;1.60;;;;;;;12.46;77.23;101128.66;6270551;28;20207;-72
2021/09/13 04:23:45;;;;;;;1.58;1.23;;;;;;;12.43;77.25;101123.63;6256850;28;20199;-72
2021/09/13 04:26:55;;;;;;;1.27;1.27;;;;;;;12.37;78.20;101147.25;6286650;28;20428;-72
2021/09/13 04:30:17;;;;;;;1.35;1.05;;;;;;;12.40;76.70;101140.50;6269116;28;20276;-72
2021/09/13 04:33:53;;;;;;;2.85;1.23;;;;;;;12.32;76.56;101149.81;6286707;28;20285;-71
2021/09/13 04:37:14;;;;;;;2.30;1.30;;;;;;;12.26;75.48;101150.69;6269438;28;20283;-72
2021/09/13 04:40:39;;;;;;;4.88;1.75;;;;;;;12.34;75.35;101158.66;6286916;28;20231;-71
2021/09/13 04:44:09;;;;;;;1.48;1.48;;;;;;;11.92;75.15;101159.31;6249989;28;20200;-72
2021/09/13 04:47:32;;;;;;;1.95;1.30;;;;;;;12.10;75.64;101167.63;6286351;28;20381;-72
2021/09/13 04:51:00;;;;;;;1.25;1.25;;;;;;;12.25;74.92;101159.94;6286180;28;20294;-73
2021/09/13 04:54:23;;;;;;;1.65;1.40;;;;;;;12.33;75.22;101165.16;6287249;28;20188;-72
2021/09/13 04:57:29;;;;;;;1.40;1.40;;;;;;;12.36;75.12;101151.03;6268250;28;20222;-72
2021/09/13 05:00:34;;;;;;;4.85;1.50;;;;;;;12.35;74.69;101168.50;6286408;28;20184;-71
2021/09/13 05:03:38;;;;;;;1.58;1.33;;;;;;;12.37;74.47;101163.69;6268368;28;20531;-72
2021/09/13 05:06:45;;;;;;;1.30;1.30;;;;;;;12.29;73.34;101158.47;6268146;28;20200;-72
2021/09/13 05:09:50;;;;;;;6.15;1.50;;;;;;;12.38;74.00;101167.22;6269117;28;20199;-71
2021/09/13 05:12:55;;;;;;;1.83;1.35;;;;;;;12.32;74.95;101160.78;6287312;28;20191;-72
2021/09/13 05:16:02;;;;;;;1.60;1.50;;;;;;;12.25;75.35;101167.34;6269395;28;20273;-71
2021/09/13 05:19:12;;;;;;;1.95;1.30;;;;;;;12.30;75.15;101162.88;6267947;28;20206;-71
2021/09/13 05:22:16;;;;;;;2.88;1.38;;;;;;;12.28;74.57;101173.19;6285719;28;20447;-72
2021/09/13 05:25:21;;;;;;;1.30;1.30;;;;;;;12.35;74.52;101182.19;6268789;28;20199;-73
2021/09/13 05:28:27;;;;;;;1.50;1.40;;;;;;;12.43;75.78;101190.13;6269475;28;20290;-71
2021/09/13 05:31:34;;;;;;;2.00;1.50;;;;;;;12.48;74.81;101187.59;6268157;28;20208;-71
2021/09/13 05:34:39;;;;;;;2.35;1.45;;;;;;;12.46;74.63;101205.28;6269220;28;20235;-71
2021/09/13 05:37:46;;;;;;;1.33;1.30;;;;;;;12.45;75.30;101206.34;6273402;28;20275;-72
2021/09/13 05:40:51;;;;;;;1.60;1.48;;;;;;;12.22;74.51;101215.09;6291686;28;20259;-72
2021/09/13 05:43:58;;;;;;;1.48;1.38;;;;;;;12.34;75.05;101213.38;6272626;28;20254;-72
2021/09/13 05:47:03;;;;;;;2.00;1.55;;;;;;;12.40;74.46;101222.59;6290416;28;20188;-72
2021/09/13 05:50:10;;;;;;;1.67;1.52;;;;;;;12.11;75.55;101240.44;6273138;28;20200;-72
2021/09/13 05:53:15;;;;;;;1.75;1.45;;;;;;;12.19;74.56;101240.19;6291477;28;20195;-72
2021/09/13 05:56:19;;;;;;;1.88;1.42;;;;;;;12.07;74.94;101239.16;6272965;28;20270;-73
2021/09/13 05:59:26;;;;;;;4.35;1.83;;;;;;;12.18;74.62;101252.16;6272725;28;20239;-73
2021/09/13 06:02:39;;;;;;;1.48;1.35;;;;;;;12.21;74.21;101248.16;6272691;28;20303;-72
2021/09/13 06:05:52;;;;;;;2.05;1.40;;;;;;;12.19;74.84;101264.78;6272418;28;20223;-73
2021/09/13 06:08:56;;;;;;;1.75;1.20;;;;;;;12.22;74.55;101258.88;6272094;28;20235;-72
2021/09/13 06:12:01;;;;;;;1.85;1.30;;;;;;;12.29;73.69;101254.22;6272168;28;20261;-73
2021/09/13 06:15:19;;;;;;;1.40;1.40;;;;;;;12.28;74.37;101268.94;6272097;28;20207;-73
2021/09/13 06:18:24;;;;;;;4.57;1.55;;;;;;;12.28;74.85;101268.94;6271567;28;20200;-73
2021/09/13 06:21:31;;;;;;;3.08;1.40;;;;;;;12.19;74.45;101292.16;6272476;28;20329;-74
2021/09/13 06:24:39;;;;;;;3.85;1.40;;;;;;;12.12;73.37;101274.91;6272420;28;20251;-73
2021/09/13 06:27:48;;;;;;;2.90;1.30;;;;;;;12.17;74.68;101280.56;6271644;28;20597;-73
2021/09/13 06:30:55;;;;;;;2.35;1.15;;;;;;;11.99;74.42;101291.38;6290418;28;20220;-73
2021/09/13 06:34:02;;;;;;;1.20;1.20;;;;;;;12.16;74.52;101309.00;6272778;28;20227;-73
2021/09/13 06:37:07;;;;;;;7.70;1.60;;;;;;;12.20;74.57;101304.75;6289621;28;20222;-73
2021/09/13 06:40:14;;;;;;;1.55;1.20;;;;;;;12.07;74.13;101310.28;6271376;28;20207;-73
2021/09/13 06:43:19;;;;;;;6.88;1.77;;;;;;;12.33;73.99;101301.13;6289921;28;20212;-73
2021/09/13 06:46:40;;;;;;;1.45;1.45;;;;;;;12.51;74.95;101313.03;6271324;28;20385;-73
2021/09/13 06:49:45;;;;;;;1.70;1.45;;;;;;;12.49;73.15;101317.91;6271504;28;20380;-73
2021/09/13 06:52:52;;;;;;;1.65;1.40;;;;;;;12.54;72.60;101317.25;6271315;28;20226;-73
2021/09/13 06:56:01;;;;;;;1.23;1.23;;;;;;;12.51;72.49;101324.00;6271246;28;20456;-74
2021/09/13 06:59:05;;;;;;;1.67;1.30;;;;;;;12.58;73.02;101335.75;6289570;28;20262;-73
2021/09/13 07:02:12;;;;;;;2.35;1.17;;;;;;;12.61;72.96;101328.16;6289151;28;20243;-73
2021/09/13 07:05:20;;;;;;;1.50;1.50;;;;;;;12.79;72.53;101320.06;6287916;28;20232;-73
2021/09/13 07:08:24;;;;;;;1.40;1.30;;;;;;;12.34;73.25;101333.75;6288074;28;20248;-73
2021/09/13 07:11:29;;;;;;;1.20;1.20;;;;;;;12.63;72.94;101331.53;6288169;28;20348;-73
2021/09/13 07:14:33;;;;;;;1.25;1.25;;;;;;;12.68;73.34;101351.72;6288101;28;20361;-73
2021/09/13 07:17:43;;;;;;;1.95;1.48;;;;;;;12.70;72.90;101348.75;6288114;28;20189;-74
2021/09/13 07:20:47;;;;;;;1.90;1.30;;;;;;;12.67;73.90;101357.38;6287819;28;20468;-73
2021/09/13 07:23:51;;;;;;;1.20;1.20;;;;;;;12.71;72.04;101356.72;6287775;28;20398;-73
2021/09/13 07:26:55;;;;;;;1.63;1.23;;;;;;;12.84;72.26;101366.81;6288885;28;20191;-73
2021/09/13 07:30:02;;;;;;;1.13;1.13;;;;;;;12.82;72.17;101368.91;6287933;28;20518;-73
2021/09/13 07:33:09;;;;;;;1.10;1.10;;;;;;;12.69;72.67;101374.44;6288421;28;20234;-73
2021/09/13 07:36:13;;;;;;;3.30;1.10;;;;;;;12.57;71.93;101377.88;6289073;28;20267;-73
2021/09/13 07:39:20;;;;;;;1.45;1.45;;;;;;;12.76;72.42;101380.75;6287423;28;20483;-73
2021/09/13 07:42:24;;;;;;;4.57;1.50;;;;;;;12.89;72.12;101386.97;6288517;28;20212;-73
2021/09/13 07:45:28;;;;;;;2.15;1.35;;;;;;;12.98;72.08;101382.09;6288768;28;20191;-73
2021/09/13 07:48:53;;;;;;;3.20;1.27;;;;;;;12.90;71.25;101409.72;6287410;28;20185;-74
2021/09/13 07:51:57;;;;;;;1.10;1.10;;;;;;;12.81;71.64;101395.47;6287487;28;20207;-73
2021/09/13 07:55:02;;;;;;;1.23;1.10;;;;;;;12.97;71.91;101405.03;6288369;28;20188;-73
2021/09/13 07:58:06;;;;;;;2.72;1.20;;;;;;;12.91;71.32;101394.97;6288042;28;20184;-73
2021/09/13 08:01:21;;;;;;;1.17;1.17;;;;;;;12.86;72.50;101403.00;6287913;28;20216;-73
2021/09/13 08:04:27;;;;;;;1.10;1.10;;;;;;;12.95;72.87;101412.66;6287562;28;20263;-73
2021/09/13 08:07:31;;;;;;;2.05;1.10;;;;;;;12.99;71.43;101413.91;6288247;28;20191;-74
2021/09/13 08:10:40;;;;;;;0.98;0.98;;;;;;;13.10;71.52;101410.47;6288323;28;20295;-73
2021/09/13 08:13:45;;;;;;;4.57;1.10;;;;;;;13.04;71.66;101414.09;6287856;28;20265;-73
2021/09/13 08:16:51;;;;;;;1.63;1.10;;;;;;;13.03;71.72;101426.94;6287015;28;20323;-73
2021/09/13 08:19:58;;;;;;;2.38;1.00;;;;;;;12.93;71.26;101426.56;6288256;28;20230;-72
2021/09/13 08:23:06;;;;;;;1.17;1.17;;;;;;;12.99;72.84;101430.34;6287952;28;20215;-73
2021/09/13 08:26:12;;;;;;;1.55;1.10;;;;;;;13.07;72.11;101432.88;6286657;28;20373;-73
2021/09/13 08:29:18;;;;;;;1.10;1.10;;;;;;;13.16;71.92;101437.88;6286893;28;20468;-72
2021/09/13 08:32:22;;;;;;;0.90;0.90;;;;;;;13.23;70.39;101442.44;6287808;28;20191;-73
2021/09/13 08:35:27;;;;;;;1.15;1.15;;;;;;;13.31;71.57;101454.00;6287460;28;20188;-74
2021/09/13 08:38:32;;;;;;;1.30;1.15;;;;;;;13.34;73.54;101456.31;6287238;28;20251;-73
2021/09/13 08:41:37;;;;;;;1.40;1.33;;;;;;;13.27;70.23;101455.50;6286444;28;20471;-73
2021/09/13 08:44:41;;;;;;;1.20;1.20;;;;;;;13.23;70.73;101465.22;6287296;28;20240;-73
2021/09/13 08:47:55;;;;;;;0.90;0.90;;;;;;;13.24;69.25;101450.47;6286212;28;20521;-73
2021/09/13 08:51:17;;;;;;;1.00;1.00;;;;;;;13.23;68.18;101451.50;6286096;28;20207;-73
2021/09/13 08:54:26;;;;;;;4.50;1.17;;;;;;;13.33;69.44;101460.09;6286119;28;20255;-73
2021/09/13 08:57:33;;;;;;;1.50;0.93;;;;;;;13.20;68.10;101468.38;6287396;28;20191;-73
2021/09/13 09:00:43;;;;;;;2.15;1.05;;;;;;;13.21;68.13;101461.84;6287429;28;20184;-74
2021/09/13 09:03:47;;;;;;;0.90;0.90;;;;;;;13.26;68.08;101464.78;6286543;28;20271;-73
2021/09/13 09:06:53;;;;;;;2.92;1.00;;;;;;;13.29;68.72;101472.56;6286966;28;20184;-73
2021/09/13 09:10:11;;;;;;;1.08;0.90;;;;;;;13.43;67.84;101482.38;6288817;28;20216;-74
2021/09/13 09:13:18;;;;;;;1.00;1.00;;;;;;;13.36;67.04;101487.06;6291102;28;20479;-73
2021/09/13 09:16:22;;;;;;;1.27;1.15;;;;;;;13.53;67.25;101493.69;6291481;28;20230;-74
2021/09/13 09:19:27;;;;;;;1.42;1.30;;;;;;;13.53;66.99;101485.47;6291960;28;20294;-73
2021/09/13 09:22:37;;;;;;;1.75;1.00;;;;;;;13.62;67.23;101495.13;6291924;28;20184;-73
2021/09/13 09:25:41;;;;;;;1.95;1.25;;;;;;;13.71;66.27;101506.69;6290719;28;20504;-73
2021/09/13 09:28:47;;;;;;;1.25;0.95;;;;;;;13.72;65.59;101503.72;6290755;28;20468;-73
2021/09/13 09:31:53;;;;;;;1.38;1.05;;;;;;;13.89;65.18;101509.50;6292145;28;20230;-74
2021/09/13 09:34:57;;;;;;;1.05;1.05;;;;;;;13.89;65.59;101514.16;6292085;28;20254;-73
2021/09/13 09:38:31;;;;;;;5.57;1.02;;;;;;;13.97;64.54;101533.91;6290550;28;20192;-72
2021/09/13 09:41:44;;;;;;;1.15;1.00;;;;;;;13.95;64.72;101521.47;6291095;28;20184;-72
2021/09/13 09:44:48;;;;;;;1.10;1.10;;;;;;;14.08;63.99;101518.63;6290614;28;20212;-72
2021/09/13 09:48:05;;;;;;;0.85;0.82;;;;;;;14.12;64.17;101508.91;6291365;28;20184;-73
2021/09/13 09:51:25;;;;;;;1.30;1.02;;;;;;;14.18;62.18;101513.47;6291692;28;20191;-74
2021/09/13 09:54:32;;;;;;;2.83;1.02;;;;;;;14.32;63.89;101518.69;6291556;28;20251;-73
2021/09/13 09:57:36;;;;;;;1.70;0.90;;;;;;;14.33;62.42;101514.00;6291477;28;20200;-72
2021/09/13 10:00:41;;;;;;;2.55;0.90;;;;;;;14.48;62.63;101525.50;6291381;28;20251;-73
2021/09/13 10:03:45;;;;;;;0.85;0.85;;;;;;;14.56;62.11;101530.66;6290180;28;20243;-73
2021/09/13 10:06:51;;;;;;;1.20;1.20;;;;;;;14.59;62.16;101532.97;6290208;28;20219;-73
2021/09/13 10:09:58;;;;;;;1.95;1.10;;;;;;;14.59;60.90;101538.47;6290720;28;20360;-74
2021/09/13 10:13:03;;;;;;;0.98;0.98;;;;;;;14.53;59.99;101533.91;6292606;28;20191;-73
2021/09/13 10:16:07;;;;;;;1.00;0.98;;;;;;;14.63;59.94;101528.72;6289596;28;20483;-74
2021/09/13 10:19:13;;;;;;;1.95;0.98;;;;;;;14.65;59.43;101532.06;6290102;28;20550;-74
2021/09/13 10:22:17;;;;;;;0.98;0.98;;;;;;;14.75;60.42;101532.38;6290124;28;20244;-74
2021/09/13 10:25:32;;;;;;;1.23;1.10;;;;;;;14.83;60.10;101529.34;6289438;28;20549;-73
2021/09/13 10:29:17;;;;;;;0.98;0.98;;;;;;;14.97;59.60;101530.84;6290232;28;20184;-73
2021/09/13 10:32:30;;;;;;;2.38;1.10;;;;;;;14.98;58.73;101542.69;6290528;28;20274;-73
2021/09/13 10:35:53;;;;;;;2.05;1.00;;;;;;;14.92;58.35;101538.94;6289248;28;20437;-73
2021/09/13 10:38:57;;;;;;;1.15;1.15;;;;;;;15.03;58.90;101538.19;6288971;28;20514;-73
2021/09/13 10:42:04;;;;;;;0.90;0.90;;;;;;;15.12;58.15;101537.91;6290349;28;20185;-72
2021/09/13 10:45:18;;;;;;;1.10;1.10;;;;;;;15.10;58.82;101545.53;6288747;28;20212;-72
2021/09/13 10:48:23;;;;;;;3.20;0.93;;;;;;;15.13;56.93;101550.53;6289804;28;20184;-73
2021/09/13 10:51:28;;;;;;;0.90;0.90;;;;;;;15.07;56.77;101546.00;6288767;28;20185;-72
2021/09/13 10:55:25;;;;;;;3.05;0.82;;;;;;;15.18;56.37;101536.94;6289681;28;20195;-73
2021/09/13 10:58:40;;;;;;;1.85;1.00;;;;;;;15.26;57.10;101540.25;6189792;28;20195;-73
2021/09/13 11:01:44;;;;;;;0.90;0.90;;;;;;;15.23;57.89;101543.44;6288641;28;20476;-72
2021/09/13 11:05:19;;;;;;;0.70;0.70;;;;;;;15.20;57.47;101556.81;6288500;28;20240;-72
2021/09/13 11:08:43;;;;;;;0.70;0.70;;;;;;;15.13;56.80;101562.38;6288483;28;20184;-72
2021/09/13 11:12:10;;;;;;;1.00;1.00;;;;;;;15.11;56.47;101577.44;6288595;28;20200;-72
2021/09/13 11:15:47;;;;;;;0.93;0.93;;;;;;;15.17;55.35;101579.28;6288391;28;20321;-73
2021/09/13 11:18:51;;;;;;;1.00;1.00;;;;;;;15.24;55.61;101574.53;6288794;28;20261;-73
2021/09/13 11:21:57;;;;;;;0.85;0.85;;;;;;;15.09;55.40;101574.91;6288037;28;20187;-73
2021/09/13 11:25:07;;;;;;;0.80;0.80;;;;;;;15.09;56.65;101576.81;6287910;28;20239;-73
2021/09/13 11:28:12;;;;;;;0.95;0.95;;;;;;;15.16;57.90;101572.09;6287989;28;20358;-73
2021/09/13 11:31:35;;;;;;;0.93;0.93;;;;;;;15.21;56.31;101574.97;6288634;28;20184;-73
2021/09/13 11:34:41;;;;;;;1.02;1.02;;;;;;;15.20;58.87;101567.81;6288591;28;20291;-73
2021/09/13 11:37:58;;;;;;;0.90;0.90;;;;;;;15.28;59.67;101578.50;6289070;28;20184;-72
2021/09/13 11:41:15;;;;;;;1.00;1.00;;;;;;;15.29;57.44;101571.94;6288813;28;20185;-73
2021/09/13 11:44:28;;;;;;;1.65;0.90;;;;;;;15.31;57.54;101580.78;6288804;28;20184;-73
2021/09/13 11:47:37;;;;;;;2.00;0.90;;;;;;;15.27;56.82;101576.81;6287607;28;20199;-73
2021/09/13 11:50:43;;;;;;;5.05;1.00;;;;;;;15.38;57.92;101570.56;6288723;28;20287;-72
2021/09/13 11:54:08;;;;;;;1.15;0.70;;;;;;;15.36;58.50;101575.44;6288385;28;20270;-73
2021/09/13 11:57:36;;;;;;;1.88;0.55;;;;;;;15.41;57.66;101570.91;6287248;28;20192;-73
2021/09/13 12:00:41;;;;;;;0.85;0.85;;;;;;;15.28;56.91;101584.00;6288648;28;20234;-73
2021/09/13 12:03:54;;;;;;;0.82;0.82;;;;;;;15.37;56.94;101574.38;6288542;28;20235;-72
2021/09/13 12:07:07;;;;;;;0.93;0.88;;;;;;;15.39;56.29;101583.22;6288196;28;20239;-73
2021/09/13 12:10:15;;;;;;;0.80;0.80;;;;;;;15.26;56.03;101589.72;6287055;28;20189;-73
2021/09/13 12:13:23;;;;;;;0.88;0.88;;;;;;;15.44;56.10;101580.63;6288150;28;20184;-72
2021/09/13 12:16:30;;;;;;;0.80;0.80;;;;;;;15.46;56.70;101589.50;6287893;28;20188;-73
2021/09/13 12:19:36;;;;;;;3.38;0.90;;;;;;;15.30;54.75;101595.63;6287176;28;20216;-72
2021/09/13 12:22:42;;;;;;;1.00;0.80;;;;;;;15.39;55.33;101605.22;6287952;28;20184;-72
2021/09/13 12:25:48;;;;;;;0.90;0.90;;;;;;;15.41;55.21;101614.06;6286629;28;20263;-73
2021/09/13 12:28:52;;;;;;;0.90;0.90;;;;;;;15.27;54.84;101618.06;6287960;28;20184;-73
2021/09/13 12:32:16;;;;;;;0.73;0.73;;;;;;;15.35;55.96;101615.00;6287865;28;20254;-72
2021/09/13 12:35:36;;;;;;;0.63;0.63;;;;;;;15.44;56.54;101613.63;6287888;28;20251;-72
2021/09/13 12:38:42;;;;;;;0.90;0.90;;;;;;;15.51;55.33;101622.69;6287899;28;20279;-73
2021/09/13 12:41:47;;;;;;;0.77;0.77;;;;;;;15.61;57.03;101625.72;6287380;28;20215;-73
2021/09/13 12:45:07;;;;;;;0.70;0.70;;;;;;;15.70;57.05;101624.31;6286230;28;20434;-73
2021/09/13 12:48:11;;;;;;;0.77;0.77;;;;;;;15.51;56.25;101630.94;6286306;28;20247;-73
2021/09/13 12:51:19;;;;;;;0.90;0.90;;;;;;;15.55;56.57;101635.72;6286162;28;20429;-73
2021/09/13 12:54:30;;;;;;;0.75;0.75;;;;;;;15.44;53.78;101635.63;6286096;28;20535;-73
2021/09/13 12:57:35;;;;;;;0.77;0.77;;;;;;;15.39;55.39;101632.72;6287485;28;20228;-73
2021/09/13 13:00:39;;;;;;;1.08;0.90;;;;;;;15.31;53.75;101635.75;6287061;28;20381;-73
2021/09/13 13:03:58;;;;;;;0.60;0.60;;;;;;;15.37;55.36;101634.84;6286322;28;20508;-73
2021/09/13 13:07:09;;;;;;;0.60;0.60;;;;;;;15.49;55.11;101638.56;6285942;28;20212;-73
2021/09/13 13:10:13;;;;;;;0.70;0.70;;;;;;;15.66;56.99;101628.63;6286002;28;20387;-73
2021/09/13 13:13:18;;;;;;;0.90;0.90;;;;;;;15.71;56.74;101631.50;6287164;28;20374;-73
2021/09/13 13:16:33;;;;;;;0.70;0.70;;;;;;;15.80;56.71;101624.59;6287150;28;20188;-74
2021/09/13 13:19:37;;;;;;;0.70;0.70;;;;;;;15.62;55.25;101627.38;6286721;28;20191;-73
2021/09/13 13:22:44;;;;;;;0.70;0.70;;;;;;;15.83;55.65;101635.16;6286674;28;20222;-73
2021/09/13 13:25:49;;;;;;;0.60;0.60;;;;;;;15.81;57.83;101637.31;6285498;28;20569;-73
2021/09/13 13:28:53;;;;;;;0.60;0.60;;;;;;;15.73;56.53;101640.38;6285410;28;20221;-72
2021/09/13 13:31:59;;;;;;;1.20;0.70;;;;;;;15.88;57.98;101632.53;6286848;28;20184;-72
2021/09/13 13:35:04;;;;;;;0.98;0.75;;;;;;;15.88;56.47;101627.03;6285457;28;20512;-72
2021/09/13 13:38:11;;;;;;;0.75;0.75;;;;;;;15.92;56.13;101632.94;6285912;28;20188;-73
2021/09/13 13:41:16;;;;;;;0.95;0.75;;;;;;;16.05;56.34;101633.56;6285279;28;20215;-71
2021/09/13 13:44:20;;;;;;;0.55;0.55;;;;;;;16.09;55.54;101629.28;6286725;28;20247;-74
2021/09/13 13:47:25;;;;;;;0.80;0.80;;;;;;;16.18;55.34;101616.84;6285377;28;20410;-73
2021/09/13 13:50:30;;;;;;;0.77;0.77;;;;;;;16.28;54.98;101617.13;6286433;28;20184;-73
2021/09/13 13:53:36;;;;;;;0.77;0.68;;;;;;;16.26;55.62;101613.75;6286325;28;20230;-73
2021/09/13 13:56:40;;;;;;;6.13;0.80;;;;;;;16.16;55.25;101609.91;6287981;28;20503;-73
2021/09/13 13:59:44;;;;;;;0.75;0.75;;;;;;;16.28;55.87;101606.09;6289838;28;20279;-73
2021/09/13 14:02:55;;;;;;;0.70;0.70;;;;;;;16.32;54.11;101611.97;6289497;28;20456;-73
2021/09/13 14:06:00;;;;;;;2.75;0.98;;;;;;;16.34;56.19;101614.50;6289935;28;20219;-73
2021/09/13 14:09:26;;;;;;;0.60;0.60;;;;;;;16.37;53.90;101614.03;6289845;28;20200;-73
2021/09/13 14:12:30;;;;;;;0.80;0.80;;;;;;;16.33;55.65;101618.34;6290935;28;20184;-73
2021/09/13 14:15:34;;;;;;;2.10;0.70;;;;;;;16.28;55.11;101630.88;6290637;28;20206;-73
2021/09/13 14:18:39;;;;;;;0.60;0.60;;;;;;;16.14;57.67;101626.66;6289494;28;20189;-72
2021/09/13 14:21:43;;;;;;;0.70;0.70;;;;;;;16.18;56.44;101636.13;6290583;28;20184;-73
2021/09/13 14:24:48;;;;;;;0.70;0.70;;;;;;;16.31;57.54;101626.00;6290415;28;20188;-72
2021/09/13 14:27:53;;;;;;;0.70;0.70;;;;;;;16.27;58.21;101629.22;6290084;28;20208;-73
2021/09/13 14:30:58;;;;;;;1.40;1.30;;;;;;;16.12;59.00;101627.97;6290331;28;20184;-73
2021/09/13 14:34:02;;;;;;;1.10;0.80;;;;;;;16.13;59.78;101629.63;6289871;28;20191;-73
2021/09/13 14:37:09;;;;;;;0.70;0.70;;;;;;;16.00;58.88;101630.66;6290635;28;20303;-72
2021/09/13 14:40:15;;;;;;;0.60;0.60;;;;;;;15.84;59.35;101625.84;6290295;28;20229;-73
2021/09/13 14:43:19;;;;;;;0.80;0.80;;;;;;;15.86;60.86;101628.34;6289414;28;20268;-73